Albany, New York
Traffic Map
Current Weather Conditions
Albany, New York
Scattered Clouds
Scattered Clouds
79°
Feels Like: 79°
Wind Chill: 79° Ceiling: Unl
Heat Index: 79° Visibility: 10mi
Dew Point: 51° Wind: 12mph
Humidity: 38% Direction: 350° (N)
Pressure: 29.96in Gusts: 0mph
Raw Report DataKALB 282051Z 35010KT 10SM FEW040 FEW220 SCT260 26/11 A2996 RMK AO2 SLP143 SCT V BKN T02610106 56004
Traffic Incident Summary
Active as of:
Severity:
Category:
InformationThere was an issue retrieving the traffic information for this location. Please try a different location or try again shortly.
Advertisements
Track Severe Weather on mobile